createdAt,value
2016-04-12T19:53:34.738Z,21.55
2016-04-12T19:54:34.741Z,21.51
2016-04-12T19:55:34.697Z,20.63
2016-04-12T19:56:34.699Z,20.2
2016-04-12T19:57:34.968Z,20.02
2016-04-12T19:58:34.657Z,19.92
2016-04-12T19:59:34.644Z,19.85
2016-04-12T20:00:34.616Z,19.79
2016-04-12T20:01:34.603Z,19.78
2016-04-12T20:02:34.574Z,19.8
2016-04-12T20:03:34.577Z,19.76
2016-04-12T20:04:34.564Z,19.79
2016-04-12T20:05:35.286Z,19.8
2016-04-12T20:06:34.507Z,19.79
2016-04-12T20:07:34.495Z,19.72
2016-04-12T20:08:35.091Z,19.65
2016-04-12T20:09:34.471Z,19.68
2016-04-12T20:10:34.459Z,19.82
2016-04-12T20:11:34.416Z,19.64
2016-04-12T20:12:34.402Z,19.68
2016-04-12T20:13:34.983Z,19.65
2016-04-12T20:14:34.346Z,19.68
2016-04-12T20:15:34.363Z,19.64
2016-04-12T20:16:34.319Z,19.62
2016-04-12T20:17:34.306Z,19.62
2016-04-12T20:18:34.294Z,19.61
2016-04-12T20:19:34.265Z,19.61
2016-04-12T20:20:34.362Z,19.62
2016-04-12T20:21:34.286Z,19.53
2016-04-12T20:22:34.195Z,19.57
2016-04-12T20:23:34.198Z,19.53
2016-04-12T20:24:34.185Z,19.57
2016-04-12T20:25:34.140Z,19.43
2016-04-12T20:26:34.127Z,19.5
2016-04-12T20:27:34.114Z,19.39
2016-04-12T20:28:34.086Z,19.45
2016-04-12T20:29:35.057Z,19.47
2016-04-12T20:30:34.059Z,19.43
2016-04-12T20:31:34.031Z,19.46
2016-04-12T20:32:34.034Z,19.4
2016-04-12T20:33:34.022Z,19.4
2016-04-12T20:34:33.977Z,19.28
2016-04-12T20:35:34.230Z,19.35
2016-04-12T20:36:33.951Z,19.38
2016-04-12T20:37:34.329Z,19.35
2016-04-12T20:38:33.910Z,19.38
2016-04-12T20:39:33.897Z,19.31
2016-04-12T20:40:33.884Z,19.34
2016-04-12T20:41:35.043Z,19.25
2016-04-12T20:42:33.842Z,19.25
2016-04-12T20:43:33.845Z,19.3
2016-04-12T20:44:33.895Z,19.31
2016-04-12T20:45:33.788Z,19.25
2016-04-12T20:46:33.760Z,19.23
2016-04-12T20:47:33.747Z,19.27
2016-04-12T20:48:33.733Z,19.31
2016-04-12T20:49:33.721Z,19.3
2016-04-12T20:50:33.786Z,19.3
2016-04-12T20:51:33.663Z,19.25
2016-04-12T20:52:33.901Z,19.25
2016-04-12T20:53:33.482Z,19.32
2016-04-12T20:54:33.609Z,19.45
2016-04-12T20:55:33.596Z,19.39
2016-04-12T20:56:33.599Z,19.43
2016-04-12T20:57:33.570Z,19.45
2016-04-12T20:58:33.542Z,19.42
2016-04-12T20:59:33.529Z,19.49
2016-04-12T21:00:33.906Z,19.49
2016-04-12T21:01:33.472Z,19.49
2016-04-12T21:02:33.475Z,19.46
2016-04-12T21:03:33.461Z,19.47
2016-04-12T21:04:33.417Z,19.43
2016-04-12T21:05:33.483Z,19.46
2016-04-12T21:06:33.391Z,19.45
2016-04-12T21:07:33.363Z,19.45
2016-04-12T21:08:33.912Z,19.49
2016-04-12T21:09:33.336Z,19.43
2016-04-12T21:10:33.308Z,19.57
2016-04-12T21:11:33.294Z,19.53
2016-04-12T21:12:33.298Z,19.52
2016-04-12T21:13:33.285Z,19.42
2016-04-12T21:14:33.241Z,19.39
2016-04-12T21:15:33.227Z,19.43
2016-04-12T21:16:33.888Z,19.45
2016-04-12T21:17:33.203Z,19.52
2016-04-12T21:18:33.173Z,19.55
2016-04-12T21:19:33.145Z,19.57
2016-04-12T21:20:33.210Z,19.52
2016-04-12T21:21:33.119Z,19.52
2016-04-12T21:22:33.107Z,19.55
2016-04-12T21:23:33.077Z,19.53
2016-04-12T21:24:33.205Z,19.52
2016-04-12T21:25:32.896Z,19.52
2016-04-12T21:26:33.023Z,19.53
2016-04-12T21:27:33.010Z,19.49
2016-04-12T21:28:32.982Z,19.53
2016-04-12T21:29:32.968Z,19.52
2016-04-12T21:30:32.956Z,19.53
2016-04-12T21:31:32.928Z,19.43
2016-04-12T21:32:33.226Z,19.45
2016-04-12T21:33:32.886Z,19.43
2016-04-12T21:34:32.889Z,19.49
2016-04-12T21:35:33.031Z,19.47
2016-04-12T21:36:32.847Z,19.45
2016-04-12T21:37:32.819Z,19.46
2016-04-12T21:38:32.806Z,19.45
2016-04-12T21:39:32.778Z,19.42
2016-04-12T21:40:33.983Z,19.4
2016-04-12T21:41:32.766Z,19.32
2016-04-12T21:42:32.738Z,19.4
2016-04-12T21:43:32.725Z,19.31
2016-04-12T21:44:32.697Z,19.45
2016-04-12T21:45:32.684Z,19.47
2016-04-12T21:46:32.655Z,19.42
2016-04-12T21:47:32.642Z,19.5
2016-04-12T21:48:32.614Z,19.45
2016-04-12T21:49:32.602Z,19.46
2016-04-12T21:50:32.807Z,19.46
2016-04-12T21:51:32.560Z,19.43
2016-04-12T21:52:32.546Z,19.45
2016-04-12T21:53:32.533Z,19.49
2016-04-12T21:54:32.504Z,19.38
2016-04-12T21:55:32.492Z,19.45
2016-04-12T21:56:32.479Z,19.49
2016-04-12T21:57:32.450Z,19.45
2016-04-12T21:58:32.454Z,19.5
2016-04-12T21:59:32.409Z,19.46
2016-04-12T22:00:32.396Z,19.5
2016-04-12T22:01:32.384Z,19.42
2016-04-12T22:02:32.355Z,19.45
2016-04-12T22:03:32.342Z,19.46
2016-04-12T22:04:32.329Z,19.4
2016-04-12T22:05:32.301Z,19.46
2016-04-12T22:06:32.287Z,19.46
2016-04-12T22:07:32.275Z,19.47
2016-04-12T22:08:32.261Z,19.43
2016-04-12T22:09:32.233Z,19.42
2016-04-12T22:10:32.236Z,19.45
2016-04-12T22:11:32.206Z,19.45
2016-04-12T22:12:32.178Z,19.47
2016-04-12T22:13:32.259Z,19.43
2016-04-12T22:14:32.153Z,19.43
2016-04-12T22:15:32.124Z,19.4
2016-04-12T22:16:32.111Z,19.49
2016-04-12T22:17:32.097Z,19.43
2016-04-12T22:18:32.069Z,19.3
2016-04-12T22:19:32.057Z,19.45
2016-04-12T22:20:32.028Z,19.42
2016-04-12T22:21:32.280Z,19.42
2016-04-12T22:22:31.986Z,19.43
2016-04-12T22:23:32.192Z,19.3
2016-04-12T22:24:31.977Z,19.28
2016-04-12T22:25:31.963Z,19.32
2016-04-12T22:26:31.935Z,19.31
2016-04-12T22:27:31.906Z,19.34
2016-04-12T22:28:31.909Z,19.35
2016-04-12T22:29:32.271Z,19.32
2016-04-12T22:30:31.852Z,19.35
2016-04-12T22:31:31.854Z,19.32
2016-04-12T22:32:31.810Z,19.25
2016-04-12T22:33:31.797Z,19.34
2016-04-12T22:34:31.784Z,19.35
2016-04-12T22:35:31.771Z,19.32
2016-04-12T22:36:31.773Z,19.35
2016-04-12T22:37:32.323Z,19.24
2016-04-12T22:38:31.717Z,19.28
2016-04-12T22:39:31.689Z,19.27
2016-04-12T22:40:31.659Z,19.28
2016-04-12T22:41:31.647Z,19.27
2016-04-12T22:42:31.618Z,19.27
2016-04-12T22:43:31.621Z,19.21
2016-04-12T22:44:31.578Z,19.32
2016-04-12T22:45:31.579Z,19.24
2016-04-12T22:46:31.550Z,19.27
2016-04-12T22:47:31.522Z,19.31
2016-04-12T22:48:31.525Z,19.3
2016-04-12T22:49:31.497Z,19.35
2016-04-12T22:50:31.500Z,19.28
2016-04-12T22:51:31.486Z,19.25
2016-04-12T22:52:31.599Z,19.24
2016-04-12T22:53:31.586Z,19.43
2016-04-12T22:54:31.416Z,19.62
2016-04-12T22:55:31.372Z,19.68
2016-04-12T22:56:31.445Z,19.76
2016-04-12T22:57:31.338Z,19.79
2016-04-12T22:58:31.248Z,19.79
2016-04-12T22:59:31.312Z,19.85
2016-04-12T23:00:31.284Z,19.89
2016-04-12T23:01:31.584Z,19.79
2016-04-12T23:02:31.274Z,19.98
2016-04-12T23:03:31.230Z,19.86
2016-04-12T23:04:31.233Z,19.83
2016-04-12T23:05:31.205Z,19.94
2016-04-12T23:06:31.192Z,19.9
2016-04-12T23:07:31.163Z,19.97
2016-04-12T23:08:31.154Z,19.89
2016-04-12T23:09:31.594Z,19.97
2016-04-12T23:10:31.144Z,19.97
2016-04-12T23:11:31.100Z,19.97
2016-04-12T23:12:31.087Z,19.98
2016-04-12T23:13:31.075Z,19.9
2016-04-12T23:14:31.045Z,19.94
2016-04-12T23:15:31.048Z,19.95
2016-04-12T23:16:31.207Z,19.92
2016-04-12T23:17:30.991Z,19.95
2016-04-12T23:18:30.977Z,19.94
2016-04-12T23:19:30.965Z,19.98
2016-04-12T23:20:30.952Z,19.97
2016-04-12T23:21:30.924Z,19.97
2016-04-12T23:22:30.926Z,19.87
2016-04-12T23:23:30.929Z,19.92
2016-04-12T23:24:31.166Z,19.94
2016-04-12T23:25:30.856Z,19.97
2016-04-12T23:26:30.843Z,19.95
2016-04-12T23:27:30.830Z,19.95
2016-04-12T23:28:30.818Z,19.92
2016-04-12T23:29:30.789Z,19.97
2016-04-12T23:30:30.776Z,19.97
2016-04-12T23:31:30.762Z,19.87
2016-04-12T23:32:31.234Z,19.85
2016-04-12T23:33:30.737Z,19.92
2016-04-12T23:34:30.740Z,19.94
2016-04-12T23:35:30.681Z,19.83
2016-04-12T23:36:30.683Z,19.94
2016-04-12T23:37:30.670Z,19.86
2016-04-12T23:38:30.642Z,20
2016-04-12T23:39:30.628Z,19.89
2016-04-12T23:40:31.215Z,19.89
2016-04-12T23:41:30.592Z,19.9
2016-04-12T23:42:30.579Z,19.86
2016-04-12T23:43:30.598Z,19.97
2016-04-12T23:44:30.553Z,19.86
2016-04-12T23:45:30.509Z,19.83
2016-04-12T23:46:30.512Z,19.82
2016-04-12T23:47:30.499Z,19.86
2016-04-12T23:48:30.517Z,19.87
2016-04-12T23:49:30.458Z,19.92
2016-04-12T23:50:30.445Z,19.95
2016-04-12T23:51:30.416Z,19.83
2016-04-12T23:52:30.403Z,19.87
2016-04-12T23:53:30.374Z,19.83
2016-04-12T23:54:30.377Z,19.98
2016-04-12T23:55:30.349Z,19.83
2016-04-12T23:56:31.274Z,19.82
2016-04-12T23:57:30.323Z,19.83
2016-04-12T23:58:30.294Z,19.83
2016-04-12T23:59:30.282Z,19.82
